WEATHER DATA

TODAY
Time Temp. Dewp. Hum. Bar.
00:09 13.4 7.6 68 1017.3
00:19 13.3 7.7 69 1017.5
00:29 13.1 7.5 69 1017.5
00:39 13 7.7 70 1017.5
00:50 12.8 7.5 70 1017.4
00:59 12.7 7.6 71 1017.3
01:09 12.4 7.5 72 1017.4
01:19 12.2 7.5 73 1017.3
01:30 12.1 7.4 73 1017.4
01:39 12 7.3 73 1017.3
01:49 12 7.5 74 1017.4
02:00 11.9 7.4 74 1017.4
02:10 11.7 7.2 74 1017.2
02:20 11.6 7.1 74 1017.3
02:30 11.5 7.2 75 1017.3
02:40 11.4 7.3 76 1017.4
02:50 11.3 7.2 76 1017.3
03:00 11.1 7 76 1017.4
03:10 11 7.1 77 1017.3
03:20 10.9 7.2 78 1017.2
03:30 10.8 7.1 78 1017.3
03:40 10.7 7 78 1017.4
03:51 10.6 6.9 78 1017.1
04:00 10.4 6.9 79 1017.2
04:10 10.4 7.1 80 1016.9
04:21 10.2 7.1 81 1017.1
04:31 10.1 7 81 1017.1
04:40 10.1 7 81 1016.9
04:51 10 6.9 81 1017.1
05:01 9.8 6.9 82 1017
05:11 9.7 6.8 82 1017.1
05:20 9.7 6.8 82 1017.2
05:31 9.7 6.8 82 1017.1
05:41 9.6 6.7 82 1017.3
05:51 9.5 6.8 83 1017.3
06:01 9.5 6.8 83 1017.2
06:11 9.4 6.7 83 1017.3
06:21 9.3 6.6 83 1017.3
06:31 9.2 6.5 83 1017.5
06:42 9.1 6.5 84 1017.2
06:52 9.1 6.5 84 1017.5
07:01 9 6.4 84 1017.4
07:12 9 6.4 84 1017.4
07:22 9 6.6 85 1017.4
07:32 9 6.6 85 1017.5
07:41 8.9 6.5 85 1017.6
07:52 8.8 6.4 85 1017.6
08:02 8.8 6.4 85 1017.6
08:12 8.8 6.4 85 1017.9
08:22 8.8 6.4 85 1018
08:32 8.7 6.3 85 1018
08:42 8.7 6.5 86 1018.2
08:52 8.7 6.5 86 1018.2
09:03 8.8 6.6 86 1018.3
09:12 8.8 6.6 86 1018.5
09:22 8.8 6.6 86 1018.5
09:32 8.9 6.7 86 1018.5
09:43 9 6.8 86 1018.4
09:53 9.2 7.2 87 1018.5
10:02 9.4 7.3 87 1018.4
10:13 9.6 7.5 87 1018.6
10:23 9.7 7.6 87 1018.6
10:43 10.1 8 87 1018.8
10:53 10.3 8.2 87 1018.7
11:03 10.5 8.3 86 1018.7
11:13 10.8 8.6 86 1018.8
11:24 11.1 8.8 86 1018.9
11:33 11.3 9 86 1018.7
11:43 11.7 9.4 86 1018.5
11:53 12.1 9.7 85 1018.7
12:14 13.1 10.5 84 1018.6
12:23 13.5 10.5 82 1018.4
12:34 13.8 10.6 81 1018.4
12:44 14.4 10.8 79 1018.2
12:54 14.9 10.7 76 1018.2
13:04 15.2 10.8 75 1018
13:14 15.4 10.8 74 1018
13:24 15.8 10.8 72 1017.8
13:34 16.2 10.7 70 1017.7
13:45 17 11.5 70 1017.5
13:54 17.4 11 66 1017.4
14:04 17.7 10.8 64 1017.5
14:14 18 11.1 64 1017.2
14:25 18.2 10.8 62 1017.1
14:35 18.4 11 62 1017.2
14:44 18.6 10.9 61 1017.2
14:55 18.8 10.9 60 1017.2
15:05 18.9 11 60 1016.9
15:15 19 10.6 58 1016.8
15:25 19.1 10.7 58 1016.9
15:35 19.3 11.1 59 1016.9
15:45 19.5 11 58 1016.7
15:55 19.6 10.6 56 1016.7
16:06 19.5 10.5 56 1016.8
16:15 19.5 10.5 56 1016.7
16:25 19.5 10.8 57 1016.6
16:35 19.6 11.1 58 1016.5
16:46 19.8 11.3 58 1016.6
16:56 19.9 11.4 58 1016.5
17:05 19.9 11.7 59 1016.7
17:16 19.9 11.7 59 1016.5
17:26 19.9 11.7 59 1016.7
17:36 20 11.8 59 1016.6
17:46 20 11.8 59 1016.5
17:56 20.1 11.8 59 1016.5
18:06 20 11.8 59 1016.6
18:16 20 11.8 59 1016.6

DAY STATISTIC

2018-10-18
TEMPERATURE
AVERAGE
13.0
HIGH
20.1
17:56
LOW
8.7
08:32
PRESSURE
AVERAGE
1017.5
HIGH
1018.9
11:24
LOW
1016.5
16:35
DEWPOINT
AVERAGE
8.5
HIGH
11.8
17:36
LOW
6.3
08:32
HUMIDITY
AVERAGE
75
HIGH
87
09:53
LOW
56
15:55
TEMPERATURE (°C)
LOW
8.7
HIGH
20.1
AVERAGE
13.0
PRESSURE (hpa)
LOW
1016.5
HIGH
1018.9
AVERAGE
1017.5
DEVICE